Terminal Aerodrome Forecast
Issued by NWS Cleveland, OH

Home | Current Version | Previous Version | Graphics & Text | Print | Product List | Glossary On
Versions: 1 2 3 4 5 6 7 8 9 10 11 12 13 14 15 16 17 18 19 20 21
000
FTUS41 KCLE 150300 AAA
TAFERI
TAF AMD
KERI 150302Z 1503/1524 19003KT P6SM BKN050
     FM150800 21003KT P6SM SKC
     FM151400 20008KT P6SM SCT100 BKN250
     FM152000 24008KT P6SM BKN060 OVC100
     FM152230 24006KT P6SM -RA OVC035=

USA.gov is the U.S. government's official web portal to all federal, state and local government web resources and services.